Terminal Aerodrome Forecast
Issued by NWS

Home | Current Version | Previous Version | Graphics & Text | Print | Product List | Glossary Off
Versions: 1 2 3 4 5 6 7 8 9 10 11 12 13 14 15 16 17 18 19 20 21 22 23 24 25 26 27 28

382
FTUS43 KDDC 261720
TAFGCK
TAF
KGCK 261720Z 2618/2718 00000KT P6SM OVC005
     FM261900 13008KT P6SM OVC050
     FM270300 12007KT P6SM BKN150 PROB30 2703/2706 4SM -TSRA
      OVC040CB
     FM271100 08006KT P6SM BKN200=

USA.gov is the U.S. government's official web portal to all federal, state and local government web resources and services.